sensor_id;sensor_type;location;lat;lon;timestamp;P1;durP1;ratioP1;P2;durP2;ratioP2
64132;SDS011;53116;52.020;4.446;2022-09-12T00:01:19;2.75;;;1.67;;
64132;SDS011;53116;52.020;4.446;2022-09-12T00:03:46;1.90;;;1.60;;
64132;SDS011;53116;52.020;4.446;2022-09-12T00:06:19;2.00;;;1.60;;
64132;SDS011;53116;52.020;4.446;2022-09-12T00:09:00;1.88;;;1.63;;
64132;SDS011;53116;52.020;4.446;2022-09-12T00:11:33;2.15;;;1.67;;
64132;SDS011;53116;52.020;4.446;2022-09-12T00:14:00;2.85;;;1.77;;
64132;SDS011;53116;52.020;4.446;2022-09-12T00:16:26;1.92;;;1.33;;
64132;SDS011;53116;52.020;4.446;2022-09-12T00:18:53;2.35;;;1.50;;
64132;SDS011;53116;52.020;4.446;2022-09-12T00:21:19;3.63;;;1.60;;
64132;SDS011;53116;52.020;4.446;2022-09-12T00:23:45;4.38;;;1.98;;
64132;SDS011;53116;52.020;4.446;2022-09-12T00:26:11;1.85;;;1.70;;
64132;SDS011;53116;52.020;4.446;2022-09-12T00:28:38;2.50;;;1.70;;
64132;SDS011;53116;52.020;4.446;2022-09-12T00:31:06;2.58;;;1.50;;
64132;SDS011;53116;52.020;4.446;2022-09-12T00:33:39;3.15;;;1.90;;
64132;SDS011;53116;52.020;4.446;2022-09-12T00:36:09;2.28;;;1.70;;
64132;SDS011;53116;52.020;4.446;2022-09-12T00:38:38;1.95;;;1.58;;
64132;SDS011;53116;52.020;4.446;2022-09-12T00:41:06;2.38;;;1.67;;
64132;SDS011;53116;52.020;4.446;2022-09-12T00:46:13;1.80;;;1.50;;
64132;SDS011;53116;52.020;4.446;2022-09-12T00:48:59;2.05;;;1.50;;
64132;SDS011;53116;52.020;4.446;2022-09-12T00:51:29;2.17;;;1.73;;
64132;SDS011;53116;52.020;4.446;2022-09-12T00:53:57;1.83;;;1.52;;
64132;SDS011;53116;52.020;4.446;2022-09-12T00:56:26;1.90;;;1.63;;
64132;SDS011;53116;52.020;4.446;2022-09-12T00:58:54;2.40;;;1.60;;
64132;SDS011;53116;52.020;4.446;2022-09-12T01:01:24;2.72;;;1.80;;
64132;SDS011;53116;52.020;4.446;2022-09-12T01:03:50;3.75;;;1.73;;
64132;SDS011;53116;52.020;4.446;2022-09-12T01:06:20;2.72;;;1.60;;
64132;SDS011;53116;52.020;4.446;2022-09-12T01:08:50;2.75;;;1.73;;
64132;SDS011;53116;52.020;4.446;2022-09-12T01:11:16;2.10;;;1.70;;
64132;SDS011;53116;52.020;4.446;2022-09-12T01:13:44;1.83;;;1.50;;
64132;SDS011;53116;52.020;4.446;2022-09-12T01:16:09;1.88;;;1.65;;
64132;SDS011;53116;52.020;4.446;2022-09-12T01:21:47;2.30;;;1.63;;
64132;SDS011;53116;52.020;4.446;2022-09-12T01:24:36;2.47;;;1.77;;
64132;SDS011;53116;52.020;4.446;2022-09-12T01:27:15;1.70;;;1.52;;
64132;SDS011;53116;52.020;4.446;2022-09-12T01:32:56;2.05;;;1.60;;
64132;SDS011;53116;52.020;4.446;2022-09-12T01:38:38;2.15;;;1.80;;
64132;SDS011;53116;52.020;4.446;2022-09-12T01:51:55;2.88;;;1.60;;
64132;SDS011;53116;52.020;4.446;2022-09-12T01:55:09;2.22;;;1.60;;
64132;SDS011;53116;52.020;4.446;2022-09-12T01:57:31;1.98;;;1.50;;
64132;SDS011;53116;52.020;4.446;2022-09-12T02:00:03;4.10;;;1.73;;
64132;SDS011;53116;52.020;4.446;2022-09-12T02:07:48;2.67;;;1.88;;
64132;SDS011;53116;52.020;4.446;2022-09-12T02:10:21;2.00;;;1.80;;
64132;SDS011;53116;52.020;4.446;2022-09-12T02:12:51;1.80;;;1.63;;
64132;SDS011;53116;52.020;4.446;2022-09-12T02:15:22;1.80;;;1.60;;
64132;SDS011;53116;52.020;4.446;2022-09-12T02:17:53;1.90;;;1.67;;
64132;SDS011;53116;52.020;4.446;2022-09-12T02:20:25;2.47;;;1.80;;
64132;SDS011;53116;52.020;4.446;2022-09-12T02:22:55;3.78;;;1.80;;
64132;SDS011;53116;52.020;4.446;2022-09-12T02:25:21;2.38;;;1.70;;
64132;SDS011;53116;52.020;4.446;2022-09-12T02:28:00;2.10;;;1.90;;
64132;SDS011;53116;52.020;4.446;2022-09-12T02:30:31;2.78;;;1.77;;
64132;SDS011;53116;52.020;4.446;2022-09-12T02:33:05;1.92;;;1.75;;
64132;SDS011;53116;52.020;4.446;2022-09-12T02:35:39;1.80;;;1.52;;
64132;SDS011;53116;52.020;4.446;2022-09-12T02:41:24;4.90;;;1.90;;
64132;SDS011;53116;52.020;4.446;2022-09-12T02:43:49;3.25;;;1.77;;
64132;SDS011;53116;52.020;4.446;2022-09-12T02:46:18;2.25;;;2.00;;
64132;SDS011;53116;52.020;4.446;2022-09-12T02:48:52;2.10;;;1.90;;
64132;SDS011;53116;52.020;4.446;2022-09-12T02:51:18;1.98;;;1.75;;
64132;SDS011;53116;52.020;4.446;2022-09-12T02:53:44;2.55;;;1.90;;
64132;SDS011;53116;52.020;4.446;2022-09-12T02:56:10;2.67;;;1.80;;
64132;SDS011;53116;52.020;4.446;2022-09-12T02:58:42;3.35;;;1.83;;
64132;SDS011;53116;52.020;4.446;2022-09-12T03:09:57;2.22;;;1.65;;
64132;SDS011;53116;52.020;4.446;2022-09-12T03:17:57;1.95;;;1.52;;
64132;SDS011;53116;52.020;4.446;2022-09-12T03:20:40;2.08;;;1.88;;
64132;SDS011;53116;52.020;4.446;2022-09-12T03:25:56;3.00;;;1.80;;
64132;SDS011;53116;52.020;4.446;2022-09-12T03:28:27;2.88;;;1.92;;
64132;SDS011;53116;52.020;4.446;2022-09-12T03:30:55;2.58;;;1.85;;
64132;SDS011;53116;52.020;4.446;2022-09-12T03:33:21;2.08;;;1.90;;
64132;SDS011;53116;52.020;4.446;2022-09-12T03:35:47;2.30;;;1.90;;
64132;SDS011;53116;52.020;4.446;2022-09-12T03:38:14;2.20;;;2.00;;
64132;SDS011;53116;52.020;4.446;2022-09-12T03:40:40;2.65;;;1.90;;
64132;SDS011;53116;52.020;4.446;2022-09-12T03:43:07;2.08;;;1.88;;
64132;SDS011;53116;52.020;4.446;2022-09-12T03:45:33;2.10;;;1.90;;
64132;SDS011;53116;52.020;4.446;2022-09-12T03:47:59;2.40;;;1.80;;
64132;SDS011;53116;52.020;4.446;2022-09-12T03:50:25;2.55;;;2.00;;
64132;SDS011;53116;52.020;4.446;2022-09-12T03:52:50;1.90;;;1.70;;
64132;SDS011;53116;52.020;4.446;2022-09-12T03:55:15;2.20;;;1.92;;
64132;SDS011;53116;52.020;4.446;2022-09-12T03:57:41;1.92;;;1.80;;
64132;SDS011;53116;52.020;4.446;2022-09-12T04:00:07;2.13;;;1.92;;
64132;SDS011;53116;52.020;4.446;2022-09-12T04:02:33;2.60;;;1.90;;
64132;SDS011;53116;52.020;4.446;2022-09-12T04:04:59;4.35;;;2.15;;
64132;SDS011;53116;52.020;4.446;2022-09-12T04:07:25;3.35;;;1.70;;
64132;SDS011;53116;52.020;4.446;2022-09-12T04:09:50;2.20;;;2.00;;
64132;SDS011;53116;52.020;4.446;2022-09-12T04:12:17;3.50;;;2.22;;
64132;SDS011;53116;52.020;4.446;2022-09-12T04:14:42;6.95;;;6.25;;
64132;SDS011;53116;52.020;4.446;2022-09-12T04:17:08;8.53;;;7.33;;
64132;SDS011;53116;52.020;4.446;2022-09-12T04:19:33;9.43;;;8.52;;
64132;SDS011;53116;52.020;4.446;2022-09-12T04:21:59;12.10;;;9.03;;
64132;SDS011;53116;52.020;4.446;2022-09-12T04:24:24;10.75;;;9.10;;
64132;SDS011;53116;52.020;4.446;2022-09-12T04:26:49;11.25;;;10.05;;
64132;SDS011;53116;52.020;4.446;2022-09-12T04:29:15;12.05;;;9.35;;
64132;SDS011;53116;52.020;4.446;2022-09-12T04:31:40;12.07;;;10.20;;
64132;SDS011;53116;52.020;4.446;2022-09-12T04:34:06;11.02;;;9.80;;
64132;SDS011;53116;52.020;4.446;2022-09-12T04:36:32;12.32;;;9.98;;
64132;SDS011;53116;52.020;4.446;2022-09-12T04:38:58;11.68;;;9.77;;
64132;SDS011;53116;52.020;4.446;2022-09-12T04:41:25;11.52;;;9.98;;
64132;SDS011;53116;52.020;4.446;2022-09-12T04:43:59;10.88;;;9.73;;
64132;SDS011;53116;52.020;4.446;2022-09-12T04:46:29;12.07;;;9.52;;
64132;SDS011;53116;52.020;4.446;2022-09-12T04:48:55;10.13;;;9.13;;
64132;SDS011;53116;52.020;4.446;2022-09-12T04:51:22;10.50;;;9.45;;
64132;SDS011;53116;52.020;4.446;2022-09-12T04:53:53;10.18;;;9.18;;
64132;SDS011;53116;52.020;4.446;2022-09-12T04:56:21;10.45;;;9.20;;
64132;SDS011;53116;52.020;4.446;2022-09-12T04:58:47;12.38;;;9.27;;
64132;SDS011;53116;52.020;4.446;2022-09-12T05:01:17;11.45;;;9.45;;
64132;SDS011;53116;52.020;4.446;2022-09-12T05:03:44;11.25;;;10.10;;
64132;SDS011;53116;52.020;4.446;2022-09-12T05:06:14;11.07;;;9.15;;
64132;SDS011;53116;52.020;4.446;2022-09-12T05:08:41;10.25;;;8.38;;
64132;SDS011;53116;52.020;4.446;2022-09-12T05:11:07;7.03;;;5.40;;
64132;SDS011;53116;52.020;4.446;2022-09-12T05:13:35;8.38;;;5.57;;
64132;SDS011;53116;52.020;4.446;2022-09-12T05:16:01;7.25;;;6.13;;
64132;SDS011;53116;52.020;4.446;2022-09-12T05:18:29;9.25;;;6.82;;
64132;SDS011;53116;52.020;4.446;2022-09-12T05:20:57;8.10;;;6.70;;
64132;SDS011;53116;52.020;4.446;2022-09-12T05:23:24;9.55;;;7.28;;
64132;SDS011;53116;52.020;4.446;2022-09-12T05:25:50;10.27;;;7.55;;
64132;SDS011;53116;52.020;4.446;2022-09-12T05:28:16;13.80;;;7.43;;
64132;SDS011;53116;52.020;4.446;2022-09-12T05:30:42;13.02;;;8.30;;
64132;SDS011;53116;52.020;4.446;2022-09-12T05:33:08;13.27;;;8.93;;
64132;SDS011;53116;52.020;4.446;2022-09-12T05:35:33;13.80;;;8.63;;
64132;SDS011;53116;52.020;4.446;2022-09-12T05:37:58;9.90;;;7.90;;
64132;SDS011;53116;52.020;4.446;2022-09-12T05:40:24;8.10;;;7.23;;
64132;SDS011;53116;52.020;4.446;2022-09-12T05:42:49;9.00;;;8.13;;
64132;SDS011;53116;52.020;4.446;2022-09-12T05:45:14;8.77;;;7.50;;
64132;SDS011;53116;52.020;4.446;2022-09-12T05:47:40;12.40;;;7.82;;
64132;SDS011;53116;52.020;4.446;2022-09-12T05:50:08;11.20;;;7.70;;
64132;SDS011;53116;52.020;4.446;2022-09-12T05:52:38;10.27;;;7.85;;
64132;SDS011;53116;52.020;4.446;2022-09-12T05:55:03;11.57;;;8.38;;
64132;SDS011;53116;52.020;4.446;2022-09-12T05:57:29;8.90;;;8.00;;
64132;SDS011;53116;52.020;4.446;2022-09-12T05:59:54;10.43;;;8.30;;
64132;SDS011;53116;52.020;4.446;2022-09-12T06:02:19;11.00;;;8.93;;
64132;SDS011;53116;52.020;4.446;2022-09-12T06:04:45;12.25;;;8.48;;
64132;SDS011;53116;52.020;4.446;2022-09-12T06:07:10;11.75;;;8.50;;
64132;SDS011;53116;52.020;4.446;2022-09-12T06:09:36;11.90;;;8.30;;
64132;SDS011;53116;52.020;4.446;2022-09-12T06:12:01;11.43;;;8.60;;
64132;SDS011;53116;52.020;4.446;2022-09-12T06:14:27;13.02;;;8.35;;
64132;SDS011;53116;52.020;4.446;2022-09-12T06:16:53;15.95;;;8.43;;
64132;SDS011;53116;52.020;4.446;2022-09-12T06:19:19;10.90;;;8.55;;
64132;SDS011;53116;52.020;4.446;2022-09-12T06:21:45;15.02;;;9.43;;
64132;SDS011;53116;52.020;4.446;2022-09-12T06:24:13;17.88;;;9.50;;
64132;SDS011;53116;52.020;4.446;2022-09-12T06:26:38;13.85;;;8.13;;
64132;SDS011;53116;52.020;4.446;2022-09-12T06:29:04;14.13;;;8.70;;
64132;SDS011;53116;52.020;4.446;2022-09-12T06:31:30;17.70;;;9.10;;
64132;SDS011;53116;52.020;4.446;2022-09-12T06:34:01;19.08;;;9.65;;
64132;SDS011;53116;52.020;4.446;2022-09-12T06:36:32;21.65;;;9.88;;
64132;SDS011;53116;52.020;4.446;2022-09-12T06:39:01;14.45;;;10.75;;
64132;SDS011;53116;52.020;4.446;2022-09-12T06:41:31;17.95;;;10.50;;
64132;SDS011;53116;52.020;4.446;2022-09-12T06:43:57;14.15;;;10.38;;
64132;SDS011;53116;52.020;4.446;2022-09-12T06:46:24;13.05;;;9.57;;
64132;SDS011;53116;52.020;4.446;2022-09-12T06:48:49;15.90;;;9.57;;
64132;SDS011;53116;52.020;4.446;2022-09-12T06:51:16;15.60;;;9.27;;
64132;SDS011;53116;52.020;4.446;2022-09-12T06:53:42;12.55;;;8.73;;
64132;SDS011;53116;52.020;4.446;2022-09-12T06:56:10;11.60;;;8.82;;
64132;SDS011;53116;52.020;4.446;2022-09-12T06:58:37;12.63;;;8.60;;
64132;SDS011;53116;52.020;4.446;2022-09-12T07:01:22;9.85;;;8.85;;
64132;SDS011;53116;52.020;4.446;2022-09-12T07:03:55;11.98;;;8.75;;
64132;SDS011;53116;52.020;4.446;2022-09-12T07:06:24;11.82;;;9.00;;
64132;SDS011;53116;52.020;4.446;2022-09-12T07:08:58;11.65;;;8.95;;
64132;SDS011;53116;52.020;4.446;2022-09-12T07:11:25;15.10;;;9.25;;
64132;SDS011;53116;52.020;4.446;2022-09-12T07:13:54;12.35;;;8.60;;
64132;SDS011;53116;52.020;4.446;2022-09-12T07:16:22;11.77;;;9.23;;
64132;SDS011;53116;52.020;4.446;2022-09-12T07:18:50;12.45;;;9.35;;
64132;SDS011;53116;52.020;4.446;2022-09-12T07:21:16;11.45;;;9.45;;
64132;SDS011;53116;52.020;4.446;2022-09-12T07:23:42;12.70;;;9.02;;
64132;SDS011;53116;52.020;4.446;2022-09-12T07:26:11;12.05;;;8.45;;
64132;SDS011;53116;52.020;4.446;2022-09-12T07:28:37;10.27;;;8.52;;
64132;SDS011;53116;52.020;4.446;2022-09-12T07:31:03;9.90;;;8.48;;
64132;SDS011;53116;52.020;4.446;2022-09-12T07:33:31;11.13;;;8.60;;
64132;SDS011;53116;52.020;4.446;2022-09-12T07:36:03;14.20;;;8.65;;
64132;SDS011;53116;52.020;4.446;2022-09-12T07:38:35;9.40;;;8.35;;
64132;SDS011;53116;52.020;4.446;2022-09-12T07:41:08;10.55;;;8.95;;
64132;SDS011;53116;52.020;4.446;2022-09-12T07:43:44;13.05;;;9.00;;
64132;SDS011;53116;52.020;4.446;2022-09-12T07:46:10;13.07;;;9.52;;
64132;SDS011;53116;52.020;4.446;2022-09-12T07:48:36;10.63;;;9.45;;
64132;SDS011;53116;52.020;4.446;2022-09-12T07:51:03;10.82;;;9.52;;
64132;SDS011;53116;52.020;4.446;2022-09-12T07:53:31;11.50;;;9.15;;
64132;SDS011;53116;52.020;4.446;2022-09-12T07:56:01;12.10;;;9.52;;
64132;SDS011;53116;52.020;4.446;2022-09-12T07:58:28;12.73;;;9.05;;
64132;SDS011;53116;52.020;4.446;2022-09-12T08:01:01;13.20;;;9.57;;
64132;SDS011;53116;52.020;4.446;2022-09-12T08:03:27;12.43;;;9.57;;
64132;SDS011;53116;52.020;4.446;2022-09-12T08:05:53;10.05;;;8.52;;
64132;SDS011;53116;52.020;4.446;2022-09-12T08:08:18;12.45;;;9.10;;
64132;SDS011;53116;52.020;4.446;2022-09-12T08:10:44;11.30;;;9.52;;
64132;SDS011;53116;52.020;4.446;2022-09-12T08:13:09;12.45;;;8.68;;
64132;SDS011;53116;52.020;4.446;2022-09-12T08:15:35;13.40;;;8.80;;
64132;SDS011;53116;52.020;4.446;2022-09-12T08:18:00;10.98;;;8.77;;
64132;SDS011;53116;52.020;4.446;2022-09-12T08:20:25;11.20;;;9.05;;
64132;SDS011;53116;52.020;4.446;2022-09-12T08:22:51;9.27;;;8.37;;
64132;SDS011;53116;52.020;4.446;2022-09-12T08:25:16;9.73;;;8.10;;
64132;SDS011;53116;52.020;4.446;2022-09-12T08:27:41;11.70;;;7.97;;
64132;SDS011;53116;52.020;4.446;2022-09-12T08:30:07;11.18;;;8.07;;
64132;SDS011;53116;52.020;4.446;2022-09-12T08:32:33;11.20;;;8.00;;
64132;SDS011;53116;52.020;4.446;2022-09-12T08:34:59;10.88;;;8.40;;
64132;SDS011;53116;52.020;4.446;2022-09-12T08:37:25;10.73;;;7.67;;
64132;SDS011;53116;52.020;4.446;2022-09-12T08:39:53;8.15;;;7.30;;
64132;SDS011;53116;52.020;4.446;2022-09-12T08:42:25;10.32;;;7.18;;
64132;SDS011;53116;52.020;4.446;2022-09-12T08:45:08;8.60;;;6.95;;
64132;SDS011;53116;52.020;4.446;2022-09-12T08:47:42;9.70;;;6.90;;
64132;SDS011;53116;52.020;4.446;2022-09-12T08:57:49;7.77;;;6.53;;
64132;SDS011;53116;52.020;4.446;2022-09-12T09:00:16;8.82;;;6.32;;
64132;SDS011;53116;52.020;4.446;2022-09-12T09:08:18;7.68;;;5.43;;
64132;SDS011;53116;52.020;4.446;2022-09-12T09:11:14;8.07;;;5.95;;
64132;SDS011;53116;52.020;4.446;2022-09-12T09:17:10;8.25;;;5.38;;
64132;SDS011;53116;52.020;4.446;2022-09-12T09:19:44;7.70;;;5.38;;
64132;SDS011;53116;52.020;4.446;2022-09-12T09:22:30;6.70;;;5.70;;
64132;SDS011;53116;52.020;4.446;2022-09-12T09:25:50;8.32;;;4.85;;
64132;SDS011;53116;52.020;4.446;2022-09-12T09:31:14;7.75;;;4.35;;
64132;SDS011;53116;52.020;4.446;2022-09-12T09:33:41;7.85;;;4.35;;
64132;SDS011;53116;52.020;4.446;2022-09-12T09:36:16;7.05;;;4.28;;
64132;SDS011;53116;52.020;4.446;2022-09-12T09:38:47;5.07;;;4.10;;
64132;SDS011;53116;52.020;4.446;2022-09-12T09:43:55;4.13;;;3.28;;
64132;SDS011;53116;52.020;4.446;2022-09-12T09:46:21;4.25;;;3.22;;
64132;SDS011;53116;52.020;4.446;2022-09-12T09:48:47;4.35;;;3.35;;
64132;SDS011;53116;52.020;4.446;2022-09-12T09:51:15;6.07;;;3.60;;
64132;SDS011;53116;52.020;4.446;2022-09-12T09:56:45;3.88;;;3.25;;
64132;SDS011;53116;52.020;4.446;2022-09-12T10:02:07;4.13;;;3.10;;
64132;SDS011;53116;52.020;4.446;2022-09-12T10:04:41;3.75;;;3.03;;
64132;SDS011;53116;52.020;4.446;2022-09-12T10:07:19;3.88;;;2.90;;
64132;SDS011;53116;52.020;4.446;2022-09-12T10:12:31;3.40;;;2.90;;
64132;SDS011;53116;52.020;4.446;2022-09-12T10:14:58;3.45;;;2.85;;
64132;SDS011;53116;52.020;4.446;2022-09-12T10:22:55;2.95;;;2.63;;
64132;SDS011;53116;52.020;4.446;2022-09-12T10:25:22;4.15;;;2.70;;
64132;SDS011;53116;52.020;4.446;2022-09-12T10:27:53;6.53;;;3.28;;
64132;SDS011;53116;52.020;4.446;2022-09-12T10:30:22;3.25;;;2.67;;
64132;SDS011;53116;52.020;4.446;2022-09-12T10:32:52;4.68;;;2.80;;
64132;SDS011;53116;52.020;4.446;2022-09-12T10:35:28;3.60;;;2.88;;
64132;SDS011;53116;52.020;4.446;2022-09-12T10:38:05;4.07;;;2.90;;
64132;SDS011;53116;52.020;4.446;2022-09-12T10:40:41;3.88;;;2.60;;
64132;SDS011;53116;52.020;4.446;2022-09-12T10:43:28;3.42;;;2.67;;
64132;SDS011;53116;52.020;4.446;2022-09-12T10:46:09;4.60;;;2.75;;
64132;SDS011;53116;52.020;4.446;2022-09-12T10:48:47;3.72;;;2.63;;
64132;SDS011;53116;52.020;4.446;2022-09-12T10:53:49;3.88;;;2.90;;
64132;SDS011;53116;52.020;4.446;2022-09-12T11:02:42;4.15;;;2.95;;
64132;SDS011;53116;52.020;4.446;2022-09-12T11:05:30;5.13;;;2.83;;
64132;SDS011;53116;52.020;4.446;2022-09-12T11:08:10;4.65;;;2.83;;
64132;SDS011;53116;52.020;4.446;2022-09-12T11:10:54;3.70;;;2.75;;
64132;SDS011;53116;52.020;4.446;2022-09-12T11:13:33;2.97;;;2.58;;
64132;SDS011;53116;52.020;4.446;2022-09-12T11:18:47;2.92;;;2.42;;
64132;SDS011;53116;52.020;4.446;2022-09-12T11:24:47;3.42;;;2.50;;
64132;SDS011;53116;52.020;4.446;2022-09-12T11:30:10;2.60;;;2.40;;
64132;SDS011;53116;52.020;4.446;2022-09-12T11:35:29;4.97;;;2.58;;
64132;SDS011;53116;52.020;4.446;2022-09-12T11:38:09;3.47;;;2.65;;
64132;SDS011;53116;52.020;4.446;2022-09-12T11:40:41;3.00;;;2.50;;
64132;SDS011;53116;52.020;4.446;2022-09-12T11:43:16;3.83;;;2.67;;
64132;SDS011;53116;52.020;4.446;2022-09-12T11:45:44;2.60;;;2.33;;
64132;SDS011;53116;52.020;4.446;2022-09-12T11:48:18;4.47;;;2.60;;
64132;SDS011;53116;52.020;4.446;2022-09-12T11:50:56;5.57;;;2.50;;
64132;SDS011;53116;52.020;4.446;2022-09-12T11:53:27;3.65;;;2.30;;
64132;SDS011;53116;52.020;4.446;2022-09-12T11:56:03;3.08;;;2.30;;
64132;SDS011;53116;52.020;4.446;2022-09-12T11:58:38;3.38;;;2.33;;
64132;SDS011;53116;52.020;4.446;2022-09-12T12:01:50;3.55;;;2.20;;
64132;SDS011;53116;52.020;4.446;2022-09-12T12:03:59;3.03;;;2.10;;
64132;SDS011;53116;52.020;4.446;2022-09-12T12:06:31;3.92;;;2.40;;
64132;SDS011;53116;52.020;4.446;2022-09-12T12:09:03;4.47;;;2.40;;
64132;SDS011;53116;52.020;4.446;2022-09-12T12:11:37;4.05;;;2.40;;
64132;SDS011;53116;52.020;4.446;2022-09-12T12:16:44;2.47;;;2.10;;
64132;SDS011;53116;52.020;4.446;2022-09-12T12:21:39;3.58;;;2.28;;
64132;SDS011;53116;52.020;4.446;2022-09-12T12:29:49;4.65;;;2.30;;
64132;SDS011;53116;52.020;4.446;2022-09-12T12:42:08;3.10;;;2.10;;
64132;SDS011;53116;52.020;4.446;2022-09-12T12:47:30;2.67;;;1.85;;
64132;SDS011;53116;52.020;4.446;2022-09-12T12:49:58;2.10;;;1.90;;
64132;SDS011;53116;52.020;4.446;2022-09-12T12:52:48;2.75;;;2.15;;
64132;SDS011;53116;52.020;4.446;2022-09-12T12:55:30;3.47;;;2.00;;
64132;SDS011;53116;52.020;4.446;2022-09-12T12:57:59;2.00;;;1.90;;
64132;SDS011;53116;52.020;4.446;2022-09-12T13:00:30;4.10;;;2.05;;
64132;SDS011;53116;52.020;4.446;2022-09-12T13:10:46;2.67;;;2.00;;
64132;SDS011;53116;52.020;4.446;2022-09-12T13:13:16;3.15;;;1.90;;
64132;SDS011;53116;52.020;4.446;2022-09-12T13:15:58;2.40;;;1.95;;
64132;SDS011;53116;52.020;4.446;2022-09-12T13:18:24;2.72;;;1.92;;
64132;SDS011;53116;52.020;4.446;2022-09-12T13:23:37;5.35;;;2.00;;
64132;SDS011;53116;52.020;4.446;2022-09-12T13:26:07;2.15;;;1.80;;
64132;SDS011;53116;52.020;4.446;2022-09-12T13:28:38;2.88;;;2.13;;
64132;SDS011;53116;52.020;4.446;2022-09-12T13:31:22;1.95;;;1.80;;
64132;SDS011;53116;52.020;4.446;2022-09-12T13:33:51;2.80;;;2.10;;
64132;SDS011;53116;52.020;4.446;2022-09-12T13:39:13;3.03;;;1.80;;
64132;SDS011;53116;52.020;4.446;2022-09-12T13:44:27;2.15;;;1.92;;
64132;SDS011;53116;52.020;4.446;2022-09-12T13:46:56;2.65;;;1.70;;
64132;SDS011;53116;52.020;4.446;2022-09-12T13:49:31;2.40;;;1.90;;
64132;SDS011;53116;52.020;4.446;2022-09-12T13:52:18;2.60;;;1.90;;
64132;SDS011;53116;52.020;4.446;2022-09-12T13:54:48;3.05;;;1.98;;
64132;SDS011;53116;52.020;4.446;2022-09-12T14:02:44;2.10;;;1.90;;
64132;SDS011;53116;52.020;4.446;2022-09-12T14:05:12;2.13;;;1.90;;
64132;SDS011;53116;52.020;4.446;2022-09-12T14:10:21;2.33;;;2.10;;
64132;SDS011;53116;52.020;4.446;2022-09-12T14:12:52;2.78;;;1.77;;
64132;SDS011;53116;52.020;4.446;2022-09-12T14:15:20;2.35;;;2.08;;
64132;SDS011;53116;52.020;4.446;2022-09-12T14:17:51;4.13;;;1.95;;
64132;SDS011;53116;52.020;4.446;2022-09-12T14:20:18;2.90;;;2.10;;
64132;SDS011;53116;52.020;4.446;2022-09-12T14:22:50;2.90;;;1.88;;
64132;SDS011;53116;52.020;4.446;2022-09-12T14:25:20;2.53;;;2.25;;
64132;SDS011;53116;52.020;4.446;2022-09-12T14:27:52;2.30;;;2.10;;
64132;SDS011;53116;52.020;4.446;2022-09-12T14:30:20;2.72;;;2.10;;
64132;SDS011;53116;52.020;4.446;2022-09-12T14:35:33;2.72;;;2.10;;
64132;SDS011;53116;52.020;4.446;2022-09-12T14:38:04;6.53;;;2.58;;
64132;SDS011;53116;52.020;4.446;2022-09-12T14:40:41;2.25;;;1.95;;
64132;SDS011;53116;52.020;4.446;2022-09-12T14:43:19;2.58;;;2.17;;
64132;SDS011;53116;52.020;4.446;2022-09-12T14:45:55;2.92;;;2.30;;
64132;SDS011;53116;52.020;4.446;2022-09-12T14:48:23;2.83;;;2.50;;
64132;SDS011;53116;52.020;4.446;2022-09-12T14:50:50;2.40;;;2.10;;
64132;SDS011;53116;52.020;4.446;2022-09-12T14:55:48;2.60;;;2.40;;
64132;SDS011;53116;52.020;4.446;2022-09-12T14:58:38;4.45;;;1.98;;
64132;SDS011;53116;52.020;4.446;2022-09-12T15:06:25;5.47;;;2.40;;
64132;SDS011;53116;52.020;4.446;2022-09-12T15:08:59;3.38;;;2.50;;
64132;SDS011;53116;52.020;4.446;2022-09-12T15:11:29;2.80;;;2.20;;
64132;SDS011;53116;52.020;4.446;2022-09-12T15:13:56;2.40;;;2.20;;
64132;SDS011;53116;52.020;4.446;2022-09-12T15:16:22;2.78;;;2.50;;
64132;SDS011;53116;52.020;4.446;2022-09-12T15:18:47;3.27;;;2.30;;
64132;SDS011;53116;52.020;4.446;2022-09-12T15:21:15;3.75;;;2.72;;
64132;SDS011;53116;52.020;4.446;2022-09-12T15:23:46;2.75;;;2.22;;
64132;SDS011;53116;52.020;4.446;2022-09-12T15:26:14;3.25;;;2.70;;
64132;SDS011;53116;52.020;4.446;2022-09-12T15:28:44;4.20;;;2.42;;
64132;SDS011;53116;52.020;4.446;2022-09-12T15:31:11;4.32;;;2.47;;
64132;SDS011;53116;52.020;4.446;2022-09-12T15:33:43;3.00;;;2.63;;
64132;SDS011;53116;52.020;4.446;2022-09-12T15:36:13;4.33;;;2.27;;
64132;SDS011;53116;52.020;4.446;2022-09-12T15:38:40;4.57;;;2.40;;
64132;SDS011;53116;52.020;4.446;2022-09-12T15:41:13;5.05;;;2.88;;
64132;SDS011;53116;52.020;4.446;2022-09-12T15:43:41;4.68;;;2.60;;
64132;SDS011;53116;52.020;4.446;2022-09-12T15:46:09;3.45;;;2.85;;
64132;SDS011;53116;52.020;4.446;2022-09-12T15:48:35;3.72;;;2.78;;
64132;SDS011;53116;52.020;4.446;2022-09-12T15:51:01;3.45;;;2.33;;
64132;SDS011;53116;52.020;4.446;2022-09-12T15:53:29;2.67;;;2.22;;
64132;SDS011;53116;52.020;4.446;2022-09-12T15:55:54;3.55;;;2.70;;
64132;SDS011;53116;52.020;4.446;2022-09-12T15:58:20;3.40;;;2.50;;
64132;SDS011;53116;52.020;4.446;2022-09-12T16:00:45;4.47;;;2.50;;
64132;SDS011;53116;52.020;4.446;2022-09-12T16:03:24;3.75;;;2.60;;
64132;SDS011;53116;52.020;4.446;2022-09-12T16:05:55;5.90;;;2.40;;
64132;SDS011;53116;52.020;4.446;2022-09-12T16:08:25;4.55;;;2.83;;
64132;SDS011;53116;52.020;4.446;2022-09-12T16:10:55;5.72;;;2.70;;
64132;SDS011;53116;52.020;4.446;2022-09-12T16:13:22;3.58;;;2.65;;
64132;SDS011;53116;52.020;4.446;2022-09-12T16:15:48;5.50;;;2.40;;
64132;SDS011;53116;52.020;4.446;2022-09-12T16:18:14;4.15;;;2.35;;
64132;SDS011;53116;52.020;4.446;2022-09-12T16:20:40;4.93;;;2.40;;
64132;SDS011;53116;52.020;4.446;2022-09-12T16:23:06;6.10;;;2.63;;
64132;SDS011;53116;52.020;4.446;2022-09-12T16:25:31;8.50;;;2.60;;
64132;SDS011;53116;52.020;4.446;2022-09-12T16:27:57;6.30;;;2.53;;
64132;SDS011;53116;52.020;4.446;2022-09-12T16:30:22;10.45;;;2.60;;
64132;SDS011;53116;52.020;4.446;2022-09-12T16:32:47;6.35;;;2.40;;
64132;SDS011;53116;52.020;4.446;2022-09-12T16:35:13;4.13;;;2.28;;
64132;SDS011;53116;52.020;4.446;2022-09-12T16:37:38;6.15;;;2.40;;
64132;SDS011;53116;52.020;4.446;2022-09-12T16:40:04;7.45;;;2.40;;
64132;SDS011;53116;52.020;4.446;2022-09-12T16:42:31;3.90;;;2.70;;
64132;SDS011;53116;52.020;4.446;2022-09-12T16:44:56;5.57;;;3.20;;
64132;SDS011;53116;52.020;4.446;2022-09-12T16:47:21;5.07;;;3.05;;
64132;SDS011;53116;52.020;4.446;2022-09-12T16:49:47;5.65;;;2.90;;
64132;SDS011;53116;52.020;4.446;2022-09-12T16:52:12;8.87;;;2.97;;
64132;SDS011;53116;52.020;4.446;2022-09-12T16:54:40;7.13;;;2.90;;
64132;SDS011;53116;52.020;4.446;2022-09-12T16:57:06;7.85;;;2.72;;
64132;SDS011;53116;52.020;4.446;2022-09-12T16:59:31;7.60;;;2.85;;
64132;SDS011;53116;52.020;4.446;2022-09-12T17:01:57;4.50;;;2.40;;
64132;SDS011;53116;52.020;4.446;2022-09-12T17:04:22;5.85;;;2.75;;
64132;SDS011;53116;52.020;4.446;2022-09-12T17:06:48;4.95;;;2.40;;
64132;SDS011;53116;52.020;4.446;2022-09-12T17:09:14;6.03;;;2.60;;
64132;SDS011;53116;52.020;4.446;2022-09-12T17:11:43;14.63;;;2.72;;
64132;SDS011;53116;52.020;4.446;2022-09-12T17:14:09;6.57;;;2.40;;
64132;SDS011;53116;52.020;4.446;2022-09-12T17:16:36;4.45;;;2.40;;
64132;SDS011;53116;52.020;4.446;2022-09-12T17:19:03;4.18;;;2.05;;
64132;SDS011;53116;52.020;4.446;2022-09-12T17:21:29;5.20;;;2.40;;
64132;SDS011;53116;52.020;4.446;2022-09-12T17:23:55;5.40;;;2.30;;
64132;SDS011;53116;52.020;4.446;2022-09-12T17:26:20;2.35;;;1.85;;
64132;SDS011;53116;52.020;4.446;2022-09-12T17:28:46;6.22;;;2.20;;
64132;SDS011;53116;52.020;4.446;2022-09-12T17:31:12;3.45;;;2.20;;
64132;SDS011;53116;52.020;4.446;2022-09-12T17:33:38;2.85;;;2.10;;
64132;SDS011;53116;52.020;4.446;2022-09-12T17:36:14;7.55;;;2.30;;
64132;SDS011;53116;52.020;4.446;2022-09-12T17:38:42;3.88;;;2.00;;
64132;SDS011;53116;52.020;4.446;2022-09-12T17:43:41;5.25;;;2.13;;